sensor_id;sensor_type;location;lat;lon;timestamp;temperature;humidity
21207;DHT22;10761;48.532;8.026;2022-10-13T00:00:43;12.60;99.90
21207;DHT22;10761;48.532;8.026;2022-10-13T00:03:09;12.70;99.90
21207;DHT22;10761;48.532;8.026;2022-10-13T00:05:38;12.70;99.90
21207;DHT22;10761;48.532;8.026;2022-10-13T00:08:04;12.70;99.90
21207;DHT22;10761;48.532;8.026;2022-10-13T00:10:30;12.70;99.90
21207;DHT22;10761;48.532;8.026;2022-10-13T00:12:55;12.70;99.90
21207;DHT22;10761;48.532;8.026;2022-10-13T00:15:21;12.80;99.90
21207;DHT22;10761;48.532;8.026;2022-10-13T00:17:50;12.80;99.90
21207;DHT22;10761;48.532;8.026;2022-10-13T00:20:15;12.80;99.90
21207;DHT22;10761;48.532;8.026;2022-10-13T00:22:41;12.80;99.90
21207;DHT22;10761;48.532;8.026;2022-10-13T00:25:07;12.80;99.90
21207;DHT22;10761;48.532;8.026;2022-10-13T00:27:33;12.80;99.90
21207;DHT22;10761;48.532;8.026;2022-10-13T00:29:58;12.80;99.90
21207;DHT22;10761;48.532;8.026;2022-10-13T00:32:24;12.80;99.90
21207;DHT22;10761;48.532;8.026;2022-10-13T00:34:50;12.80;99.90
21207;DHT22;10761;48.532;8.026;2022-10-13T00:37:15;12.80;99.90
21207;DHT22;10761;48.532;8.026;2022-10-13T00:39:41;12.80;99.90
21207;DHT22;10761;48.532;8.026;2022-10-13T00:42:11;12.70;99.90
21207;DHT22;10761;48.532;8.026;2022-10-13T00:44:59;12.80;99.90
21207;DHT22;10761;48.532;8.026;2022-10-13T00:47:37;12.70;99.90
21207;DHT22;10761;48.532;8.026;2022-10-13T00:50:05;12.70;99.90
21207;DHT22;10761;48.532;8.026;2022-10-13T00:52:32;12.70;99.90
21207;DHT22;10761;48.532;8.026;2022-10-13T00:54:58;12.70;99.90
21207;DHT22;10761;48.532;8.026;2022-10-13T00:57:25;12.70;99.90
21207;DHT22;10761;48.532;8.026;2022-10-13T00:59:51;12.70;99.90
21207;DHT22;10761;48.532;8.026;2022-10-13T01:02:17;12.60;99.90
21207;DHT22;10761;48.532;8.026;2022-10-13T01:04:45;12.60;99.90
21207;DHT22;10761;48.532;8.026;2022-10-13T01:07:13;12.60;99.90
21207;DHT22;10761;48.532;8.026;2022-10-13T01:09:40;12.50;99.90
21207;DHT22;10761;48.532;8.026;2022-10-13T01:12:20;12.50;99.90
21207;DHT22;10761;48.532;8.026;2022-10-13T01:14:59;12.40;99.90
21207;DHT22;10761;48.532;8.026;2022-10-13T01:20:15;12.10;99.90
21207;DHT22;10761;48.532;8.026;2022-10-13T01:23:24;12.00;99.90
21207;DHT22;10761;48.532;8.026;2022-10-13T01:29:10;11.90;99.90
21207;DHT22;10761;48.532;8.026;2022-10-13T01:31:57;11.90;99.90
21207;DHT22;10761;48.532;8.026;2022-10-13T01:40:10;11.80;99.90
21207;DHT22;10761;48.532;8.026;2022-10-13T01:43:24;11.80;99.90
21207;DHT22;10761;48.532;8.026;2022-10-13T01:45:39;11.80;99.90
21207;DHT22;10761;48.532;8.026;2022-10-13T01:48:07;11.80;99.90
21207;DHT22;10761;48.532;8.026;2022-10-13T01:50:36;11.80;99.90
21207;DHT22;10761;48.532;8.026;2022-10-13T01:53:03;11.80;99.90
21207;DHT22;10761;48.532;8.026;2022-10-13T01:55:29;11.80;99.90
21207;DHT22;10761;48.532;8.026;2022-10-13T01:57:56;11.70;99.90
21207;DHT22;10761;48.532;8.026;2022-10-13T02:00:22;11.70;99.90
21207;DHT22;10761;48.532;8.026;2022-10-13T02:05:31;11.80;99.90
21207;DHT22;10761;48.532;8.026;2022-10-13T02:08:15;11.80;99.90
21207;DHT22;10761;48.532;8.026;2022-10-13T02:10:49;11.80;99.90
21207;DHT22;10761;48.532;8.026;2022-10-13T02:13:19;11.90;99.90
21207;DHT22;10761;48.532;8.026;2022-10-13T02:15:48;12.00;99.90
21207;DHT22;10761;48.532;8.026;2022-10-13T02:18:20;11.90;99.90
21207;DHT22;10761;48.532;8.026;2022-10-13T02:20:47;11.90;99.90
21207;DHT22;10761;48.532;8.026;2022-10-13T02:23:15;11.90;99.90
21207;DHT22;10761;48.532;8.026;2022-10-13T02:25:41;11.80;99.90
21207;DHT22;10761;48.532;8.026;2022-10-13T02:28:08;11.90;99.90
21207;DHT22;10761;48.532;8.026;2022-10-13T02:30:34;11.90;99.90
21207;DHT22;10761;48.532;8.026;2022-10-13T02:33:00;11.90;99.90
21207;DHT22;10761;48.532;8.026;2022-10-13T02:35:27;11.90;99.90
21207;DHT22;10761;48.532;8.026;2022-10-13T02:37:52;11.90;99.90
21207;DHT22;10761;48.532;8.026;2022-10-13T02:40:18;11.90;99.90
21207;DHT22;10761;48.532;8.026;2022-10-13T02:42:44;11.80;99.90
21207;DHT22;10761;48.532;8.026;2022-10-13T02:45:10;11.80;99.90
21207;DHT22;10761;48.532;8.026;2022-10-13T02:47:35;11.80;99.90
21207;DHT22;10761;48.532;8.026;2022-10-13T02:50:01;11.80;99.90
21207;DHT22;10761;48.532;8.026;2022-10-13T02:52:27;11.80;99.90
21207;DHT22;10761;48.532;8.026;2022-10-13T02:54:52;11.70;99.90
21207;DHT22;10761;48.532;8.026;2022-10-13T02:57:18;11.70;99.90
21207;DHT22;10761;48.532;8.026;2022-10-13T02:59:44;11.70;99.90
21207;DHT22;10761;48.532;8.026;2022-10-13T03:02:09;11.60;99.90
21207;DHT22;10761;48.532;8.026;2022-10-13T03:04:35;11.60;99.90
21207;DHT22;10761;48.532;8.026;2022-10-13T03:07:00;11.60;99.90
21207;DHT22;10761;48.532;8.026;2022-10-13T03:09:26;11.50;99.90
21207;DHT22;10761;48.532;8.026;2022-10-13T03:11:52;11.50;99.90
21207;DHT22;10761;48.532;8.026;2022-10-13T03:14:18;11.50;99.90
21207;DHT22;10761;48.532;8.026;2022-10-13T03:16:43;11.50;99.90
21207;DHT22;10761;48.532;8.026;2022-10-13T03:19:10;11.50;99.90
21207;DHT22;10761;48.532;8.026;2022-10-13T03:21:37;11.40;99.90
21207;DHT22;10761;48.532;8.026;2022-10-13T03:24:03;11.40;99.90
21207;DHT22;10761;48.532;8.026;2022-10-13T03:26:30;11.40;99.90
21207;DHT22;10761;48.532;8.026;2022-10-13T03:28:56;11.30;99.90
21207;DHT22;10761;48.532;8.026;2022-10-13T03:31:22;11.40;99.90
21207;DHT22;10761;48.532;8.026;2022-10-13T03:33:47;11.40;99.90
21207;DHT22;10761;48.532;8.026;2022-10-13T03:36:13;11.40;99.90
21207;DHT22;10761;48.532;8.026;2022-10-13T03:38:39;11.40;99.90
21207;DHT22;10761;48.532;8.026;2022-10-13T03:41:14;11.40;99.90
21207;DHT22;10761;48.532;8.026;2022-10-13T03:43:40;11.40;99.90
21207;DHT22;10761;48.532;8.026;2022-10-13T03:46:07;11.40;99.90
21207;DHT22;10761;48.532;8.026;2022-10-13T03:48:34;11.40;99.90
21207;DHT22;10761;48.532;8.026;2022-10-13T03:51:07;11.40;99.90
21207;DHT22;10761;48.532;8.026;2022-10-13T03:53:33;11.40;99.90
21207;DHT22;10761;48.532;8.026;2022-10-13T03:55:59;11.30;99.90
21207;DHT22;10761;48.532;8.026;2022-10-13T03:58:25;11.30;99.90
21207;DHT22;10761;48.532;8.026;2022-10-13T04:00:53;11.30;99.90
21207;DHT22;10761;48.532;8.026;2022-10-13T04:03:20;11.30;99.90
21207;DHT22;10761;48.532;8.026;2022-10-13T04:05:46;11.30;99.90
21207;DHT22;10761;48.532;8.026;2022-10-13T04:08:12;11.30;99.90
21207;DHT22;10761;48.532;8.026;2022-10-13T04:10:39;11.30;99.90
21207;DHT22;10761;48.532;8.026;2022-10-13T04:13:05;11.30;99.90
21207;DHT22;10761;48.532;8.026;2022-10-13T04:15:35;11.30;99.90
21207;DHT22;10761;48.532;8.026;2022-10-13T04:18:01;11.30;99.90
21207;DHT22;10761;48.532;8.026;2022-10-13T04:20:27;11.30;99.90
21207;DHT22;10761;48.532;8.026;2022-10-13T04:22:53;11.30;99.90
21207;DHT22;10761;48.532;8.026;2022-10-13T04:25:19;11.30;99.90
21207;DHT22;10761;48.532;8.026;2022-10-13T04:27:44;11.30;99.90
21207;DHT22;10761;48.532;8.026;2022-10-13T04:30:12;11.20;99.90
21207;DHT22;10761;48.532;8.026;2022-10-13T04:32:38;11.20;99.90
21207;DHT22;10761;48.532;8.026;2022-10-13T04:35:04;11.20;99.90
21207;DHT22;10761;48.532;8.026;2022-10-13T04:37:29;11.10;99.90
21207;DHT22;10761;48.532;8.026;2022-10-13T04:39:55;11.10;99.90
21207;DHT22;10761;48.532;8.026;2022-10-13T04:42:20;11.00;99.90
21207;DHT22;10761;48.532;8.026;2022-10-13T04:44:46;11.10;99.90
21207;DHT22;10761;48.532;8.026;2022-10-13T04:47:12;11.00;99.90
21207;DHT22;10761;48.532;8.026;2022-10-13T04:49:37;11.20;99.90
21207;DHT22;10761;48.532;8.026;2022-10-13T04:52:03;11.20;99.90
21207;DHT22;10761;48.532;8.026;2022-10-13T04:54:28;11.30;99.90
21207;DHT22;10761;48.532;8.026;2022-10-13T04:56:54;11.30;99.90
21207;DHT22;10761;48.532;8.026;2022-10-13T04:59:19;11.50;99.90
21207;DHT22;10761;48.532;8.026;2022-10-13T05:01:45;11.60;99.90
21207;DHT22;10761;48.532;8.026;2022-10-13T05:04:11;11.70;99.90
21207;DHT22;10761;48.532;8.026;2022-10-13T05:06:39;11.60;99.90
21207;DHT22;10761;48.532;8.026;2022-10-13T05:09:05;11.60;99.90
21207;DHT22;10761;48.532;8.026;2022-10-13T05:11:30;11.60;99.90
21207;DHT22;10761;48.532;8.026;2022-10-13T05:13:57;11.70;99.90
21207;DHT22;10761;48.532;8.026;2022-10-13T05:16:24;11.90;99.90
21207;DHT22;10761;48.532;8.026;2022-10-13T05:18:51;11.90;99.90
21207;DHT22;10761;48.532;8.026;2022-10-13T05:21:19;11.90;99.90
21207;DHT22;10761;48.532;8.026;2022-10-13T05:23:46;11.90;99.90
21207;DHT22;10761;48.532;8.026;2022-10-13T05:26:16;11.90;99.90
21207;DHT22;10761;48.532;8.026;2022-10-13T05:28:43;11.90;99.90
21207;DHT22;10761;48.532;8.026;2022-10-13T05:31:09;11.90;99.90
21207;DHT22;10761;48.532;8.026;2022-10-13T05:33:35;12.00;99.90
21207;DHT22;10761;48.532;8.026;2022-10-13T05:36:04;12.00;99.90
21207;DHT22;10761;48.532;8.026;2022-10-13T05:38:29;11.90;99.90
21207;DHT22;10761;48.532;8.026;2022-10-13T05:41:04;11.80;99.90
21207;DHT22;10761;48.532;8.026;2022-10-13T05:43:31;11.70;99.90
21207;DHT22;10761;48.532;8.026;2022-10-13T05:45:58;11.60;99.90
21207;DHT22;10761;48.532;8.026;2022-10-13T05:48:23;11.60;99.90
21207;DHT22;10761;48.532;8.026;2022-10-13T05:50:49;11.50;99.90
21207;DHT22;10761;48.532;8.026;2022-10-13T05:53:15;11.50;99.90
21207;DHT22;10761;48.532;8.026;2022-10-13T05:55:41;11.50;99.90
21207;DHT22;10761;48.532;8.026;2022-10-13T05:58:07;11.50;99.90
21207;DHT22;10761;48.532;8.026;2022-10-13T06:00:33;11.60;99.90
21207;DHT22;10761;48.532;8.026;2022-10-13T06:03:06;11.60;99.90
21207;DHT22;10761;48.532;8.026;2022-10-13T06:05:32;11.60;99.90
21207;DHT22;10761;48.532;8.026;2022-10-13T06:07:58;11.70;99.90
21207;DHT22;10761;48.532;8.026;2022-10-13T06:10:25;11.70;99.90
21207;DHT22;10761;48.532;8.026;2022-10-13T06:12:50;11.70;99.90
21207;DHT22;10761;48.532;8.026;2022-10-13T06:15:16;11.70;99.90
21207;DHT22;10761;48.532;8.026;2022-10-13T06:17:42;11.70;99.90
21207;DHT22;10761;48.532;8.026;2022-10-13T06:20:08;11.70;99.90
21207;DHT22;10761;48.532;8.026;2022-10-13T06:22:35;11.70;99.90
21207;DHT22;10761;48.532;8.026;2022-10-13T06:25:01;11.70;99.90
21207;DHT22;10761;48.532;8.026;2022-10-13T06:27:27;11.70;99.90
21207;DHT22;10761;48.532;8.026;2022-10-13T06:29:53;11.70;99.90
21207;DHT22;10761;48.532;8.026;2022-10-13T06:32:19;11.70;99.90
21207;DHT22;10761;48.532;8.026;2022-10-13T06:34:45;11.80;99.90
21207;DHT22;10761;48.532;8.026;2022-10-13T06:37:10;11.80;99.90
21207;DHT22;10761;48.532;8.026;2022-10-13T06:39:36;11.70;99.90
21207;DHT22;10761;48.532;8.026;2022-10-13T06:42:01;11.70;99.90
21207;DHT22;10761;48.532;8.026;2022-10-13T06:44:27;11.80;99.90
21207;DHT22;10761;48.532;8.026;2022-10-13T06:46:52;11.80;99.90
21207;DHT22;10761;48.532;8.026;2022-10-13T06:49:18;11.90;99.90
21207;DHT22;10761;48.532;8.026;2022-10-13T06:51:45;11.90;99.90
21207;DHT22;10761;48.532;8.026;2022-10-13T06:54:10;12.00;99.90
21207;DHT22;10761;48.532;8.026;2022-10-13T06:56:36;12.00;99.90
21207;DHT22;10761;48.532;8.026;2022-10-13T06:59:02;12.10;99.90
21207;DHT22;10761;48.532;8.026;2022-10-13T07:01:27;12.10;99.90
21207;DHT22;10761;48.532;8.026;2022-10-13T07:03:53;12.20;99.90
21207;DHT22;10761;48.532;8.026;2022-10-13T07:06:19;12.20;99.90
21207;DHT22;10761;48.532;8.026;2022-10-13T07:08:44;12.30;99.90
21207;DHT22;10761;48.532;8.026;2022-10-13T07:11:12;12.40;99.90
21207;DHT22;10761;48.532;8.026;2022-10-13T07:13:39;12.50;99.90
21207;DHT22;10761;48.532;8.026;2022-10-13T07:16:05;12.60;99.90
21207;DHT22;10761;48.532;8.026;2022-10-13T07:18:31;12.70;99.90
21207;DHT22;10761;48.532;8.026;2022-10-13T07:20:58;12.70;99.90
21207;DHT22;10761;48.532;8.026;2022-10-13T07:23:25;12.80;99.90
21207;DHT22;10761;48.532;8.026;2022-10-13T07:25:51;12.90;99.90
21207;DHT22;10761;48.532;8.026;2022-10-13T07:28:16;12.90;99.90
21207;DHT22;10761;48.532;8.026;2022-10-13T07:30:42;12.90;99.90
21207;DHT22;10761;48.532;8.026;2022-10-13T07:33:09;12.80;99.90
21207;DHT22;10761;48.532;8.026;2022-10-13T07:35:37;12.90;99.90
21207;DHT22;10761;48.532;8.026;2022-10-13T07:38:03;13.00;99.90
21207;DHT22;10761;48.532;8.026;2022-10-13T07:40:29;13.00;99.90
21207;DHT22;10761;48.532;8.026;2022-10-13T07:42:55;13.00;99.90
21207;DHT22;10761;48.532;8.026;2022-10-13T07:45:21;13.10;99.90
21207;DHT22;10761;48.532;8.026;2022-10-13T07:47:47;13.10;99.90
21207;DHT22;10761;48.532;8.026;2022-10-13T07:50:13;13.20;99.90
21207;DHT22;10761;48.532;8.026;2022-10-13T07:52:39;13.20;99.90
21207;DHT22;10761;48.532;8.026;2022-10-13T07:55:05;13.30;99.90
21207;DHT22;10761;48.532;8.026;2022-10-13T07:57:31;13.30;99.90
21207;DHT22;10761;48.532;8.026;2022-10-13T07:59:56;13.30;99.90
21207;DHT22;10761;48.532;8.026;2022-10-13T08:02:22;13.40;99.90
21207;DHT22;10761;48.532;8.026;2022-10-13T08:04:48;13.40;99.90
21207;DHT22;10761;48.532;8.026;2022-10-13T08:07:13;13.40;99.90
21207;DHT22;10761;48.532;8.026;2022-10-13T08:09:40;13.30;99.90
21207;DHT22;10761;48.532;8.026;2022-10-13T08:12:06;13.30;99.90
21207;DHT22;10761;48.532;8.026;2022-10-13T08:14:33;13.50;99.90
21207;DHT22;10761;48.532;8.026;2022-10-13T08:16:58;13.60;99.90
21207;DHT22;10761;48.532;8.026;2022-10-13T08:19:25;13.70;99.90
21207;DHT22;10761;48.532;8.026;2022-10-13T08:21:53;13.70;99.90
21207;DHT22;10761;48.532;8.026;2022-10-13T08:24:20;13.90;99.90
21207;DHT22;10761;48.532;8.026;2022-10-13T08:26:47;14.10;99.90
21207;DHT22;10761;48.532;8.026;2022-10-13T08:29:13;14.20;99.90
21207;DHT22;10761;48.532;8.026;2022-10-13T08:31:40;14.20;99.90
21207;DHT22;10761;48.532;8.026;2022-10-13T08:34:07;14.10;99.90
21207;DHT22;10761;48.532;8.026;2022-10-13T08:36:33;14.20;99.90
21207;DHT22;10761;48.532;8.026;2022-10-13T08:38:58;14.30;99.90
21207;DHT22;10761;48.532;8.026;2022-10-13T08:41:32;14.40;99.90
21207;DHT22;10761;48.532;8.026;2022-10-13T08:49:40;14.60;99.90
21207;DHT22;10761;48.532;8.026;2022-10-13T08:52:15;14.60;99.90
21207;DHT22;10761;48.532;8.026;2022-10-13T08:54:42;14.80;99.90
21207;DHT22;10761;48.532;8.026;2022-10-13T08:57:10;14.90;99.90
21207;DHT22;10761;48.532;8.026;2022-10-13T08:59:35;15.10;99.90
21207;DHT22;10761;48.532;8.026;2022-10-13T09:02:04;15.20;99.90
21207;DHT22;10761;48.532;8.026;2022-10-13T09:04:37;15.20;99.90
21207;DHT22;10761;48.532;8.026;2022-10-13T09:07:12;15.20;99.90
21207;DHT22;10761;48.532;8.026;2022-10-13T09:09:39;15.10;99.90
21207;DHT22;10761;48.532;8.026;2022-10-13T09:12:05;15.20;99.90
21207;DHT22;10761;48.532;8.026;2022-10-13T09:14:36;15.30;99.90
21207;DHT22;10761;48.532;8.026;2022-10-13T09:22:40;15.80;99.90
21207;DHT22;10761;48.532;8.026;2022-10-13T09:30:34;16.50;99.90
21207;DHT22;10761;48.532;8.026;2022-10-13T09:35:29;16.70;99.90
21207;DHT22;10761;48.532;8.026;2022-10-13T09:38:19;16.60;99.90
21207;DHT22;10761;48.532;8.026;2022-10-13T09:43:42;16.40;99.90
21207;DHT22;10761;48.532;8.026;2022-10-13T09:46:24;16.50;99.90
21207;DHT22;10761;48.532;8.026;2022-10-13T09:48:53;16.50;99.90
21207;DHT22;10761;48.532;8.026;2022-10-13T09:51:39;16.70;99.90
21207;DHT22;10761;48.532;8.026;2022-10-13T09:54:05;16.80;99.90
21207;DHT22;10761;48.532;8.026;2022-10-13T09:56:45;17.00;99.90
21207;DHT22;10761;48.532;8.026;2022-10-13T09:59:20;17.00;99.90
21207;DHT22;10761;48.532;8.026;2022-10-13T10:01:49;16.80;99.90
21207;DHT22;10761;48.532;8.026;2022-10-13T10:04:23;16.50;99.90
21207;DHT22;10761;48.532;8.026;2022-10-13T10:06:50;16.30;99.90
21207;DHT22;10761;48.532;8.026;2022-10-13T10:09:43;16.30;99.90
21207;DHT22;10761;48.532;8.026;2022-10-13T10:12:15;16.40;99.90
21207;DHT22;10761;48.532;8.026;2022-10-13T10:14:42;16.40;99.90
21207;DHT22;10761;48.532;8.026;2022-10-13T10:20:09;16.50;99.90
21207;DHT22;10761;48.532;8.026;2022-10-13T10:25:29;16.70;99.90
21207;DHT22;10761;48.532;8.026;2022-10-13T10:33:52;16.60;99.90
21207;DHT22;10761;48.532;8.026;2022-10-13T10:36:26;16.70;99.90
21207;DHT22;10761;48.532;8.026;2022-10-13T10:38:59;16.80;99.90
21207;DHT22;10761;48.532;8.026;2022-10-13T10:44:42;16.60;99.90
21207;DHT22;10761;48.532;8.026;2022-10-13T10:47:19;16.80;99.90
21207;DHT22;10761;48.532;8.026;2022-10-13T10:49:45;17.20;99.90
21207;DHT22;10761;48.532;8.026;2022-10-13T10:52:22;17.50;99.90
21207;DHT22;10761;48.532;8.026;2022-10-13T10:54:58;17.60;99.90
21207;DHT22;10761;48.532;8.026;2022-10-13T11:00:11;18.10;99.90
21207;DHT22;10761;48.532;8.026;2022-10-13T11:05:04;18.90;99.90
21207;DHT22;10761;48.532;8.026;2022-10-13T11:19:53;20.10;99.90
21207;DHT22;10761;48.532;8.026;2022-10-13T11:22:20;20.30;99.90
21207;DHT22;10761;48.532;8.026;2022-10-13T11:24:48;20.50;99.90
21207;DHT22;10761;48.532;8.026;2022-10-13T11:40:34;18.60;99.90
21207;DHT22;10761;48.532;8.026;2022-10-13T11:46:15;18.60;99.90
21207;DHT22;10761;48.532;8.026;2022-10-13T11:52:04;18.40;99.90
21207;DHT22;10761;48.532;8.026;2022-10-13T11:54:53;18.60;99.90
21207;DHT22;10761;48.532;8.026;2022-10-13T11:57:23;18.60;99.90
21207;DHT22;10761;48.532;8.026;2022-10-13T11:59:52;18.60;99.90
21207;DHT22;10761;48.532;8.026;2022-10-13T12:02:20;18.50;99.90
21207;DHT22;10761;48.532;8.026;2022-10-13T12:05:18;18.50;99.90
21207;DHT22;10761;48.532;8.026;2022-10-13T12:07:46;18.50;99.90
21207;DHT22;10761;48.532;8.026;2022-10-13T12:10:20;18.40;99.90
21207;DHT22;10761;48.532;8.026;2022-10-13T12:12:49;18.30;99.90
21207;DHT22;10761;48.532;8.026;2022-10-13T12:17:55;18.00;99.90
21207;DHT22;10761;48.532;8.026;2022-10-13T12:20:27;18.10;99.90
21207;DHT22;10761;48.532;8.026;2022-10-13T12:22:54;18.00;99.90
21207;DHT22;10761;48.532;8.026;2022-10-13T12:25:22;18.00;99.90
21207;DHT22;10761;48.532;8.026;2022-10-13T12:27:51;18.10;99.90
21207;DHT22;10761;48.532;8.026;2022-10-13T12:32:57;19.30;99.90
21207;DHT22;10761;48.532;8.026;2022-10-13T12:35:29;19.70;99.90
21207;DHT22;10761;48.532;8.026;2022-10-13T12:37:56;20.00;99.90
21207;DHT22;10761;48.532;8.026;2022-10-13T12:40:22;20.00;99.90
21207;DHT22;10761;48.532;8.026;2022-10-13T12:42:49;19.70;99.90
21207;DHT22;10761;48.532;8.026;2022-10-13T12:45:19;19.30;99.90
21207;DHT22;10761;48.532;8.026;2022-10-13T12:47:47;18.80;99.90
21207;DHT22;10761;48.532;8.026;2022-10-13T12:52:45;18.40;99.90
21207;DHT22;10761;48.532;8.026;2022-10-13T12:55:16;18.50;99.90
21207;DHT22;10761;48.532;8.026;2022-10-13T12:57:45;18.50;99.90
21207;DHT22;10761;48.532;8.026;2022-10-13T13:02:53;18.40;99.90
21207;DHT22;10761;48.532;8.026;2022-10-13T13:07:59;18.30;99.90
21207;DHT22;10761;48.532;8.026;2022-10-13T13:10:25;18.30;99.90
21207;DHT22;10761;48.532;8.026;2022-10-13T13:12:52;18.20;99.90
21207;DHT22;10761;48.532;8.026;2022-10-13T13:15:35;18.10;99.90
21207;DHT22;10761;48.532;8.026;2022-10-13T13:18:31;18.10;99.90
21207;DHT22;10761;48.532;8.026;2022-10-13T13:21:00;18.00;99.90
21207;DHT22;10761;48.532;8.026;2022-10-13T13:23:26;18.00;99.90
21207;DHT22;10761;48.532;8.026;2022-10-13T13:26:14;18.20;99.90
21207;DHT22;10761;48.532;8.026;2022-10-13T13:28:45;18.30;99.90
21207;DHT22;10761;48.532;8.026;2022-10-13T13:31:12;18.30;99.90
21207;DHT22;10761;48.532;8.026;2022-10-13T13:33:38;18.40;99.90
21207;DHT22;10761;48.532;8.026;2022-10-13T13:36:08;18.50;99.90
21207;DHT22;10761;48.532;8.026;2022-10-13T13:38:35;18.50;99.90
21207;DHT22;10761;48.532;8.026;2022-10-13T13:41:01;18.40;99.90
21207;DHT22;10761;48.532;8.026;2022-10-13T13:43:26;18.40;99.90
21207;DHT22;10761;48.532;8.026;2022-10-13T13:45:52;18.50;99.90
21207;DHT22;10761;48.532;8.026;2022-10-13T13:48:17;18.50;99.90
21207;DHT22;10761;48.532;8.026;2022-10-13T13:50:43;18.50;99.90
21207;DHT22;10761;48.532;8.026;2022-10-13T13:53:08;18.50;99.90
21207;DHT22;10761;48.532;8.026;2022-10-13T13:55:34;18.50;99.90
21207;DHT22;10761;48.532;8.026;2022-10-13T13:58:00;18.30;99.90
21207;DHT22;10761;48.532;8.026;2022-10-13T14:00:26;18.30;99.90
21207;DHT22;10761;48.532;8.026;2022-10-13T14:02:52;18.20;99.90
21207;DHT22;10761;48.532;8.026;2022-10-13T14:05:17;18.30;99.90
21207;DHT22;10761;48.532;8.026;2022-10-13T14:07:43;18.20;99.90
21207;DHT22;10761;48.532;8.026;2022-10-13T14:10:09;18.00;99.90
21207;DHT22;10761;48.532;8.026;2022-10-13T14:12:35;18.00;99.90
21207;DHT22;10761;48.532;8.026;2022-10-13T14:15:01;17.90;99.90
21207;DHT22;10761;48.532;8.026;2022-10-13T14:17:27;17.80;99.90
21207;DHT22;10761;48.532;8.026;2022-10-13T14:19:53;17.80;99.90
21207;DHT22;10761;48.532;8.026;2022-10-13T14:22:18;17.70;99.90
21207;DHT22;10761;48.532;8.026;2022-10-13T14:24:44;17.70;99.90
21207;DHT22;10761;48.532;8.026;2022-10-13T14:27:10;17.70;99.90
21207;DHT22;10761;48.532;8.026;2022-10-13T14:29:36;17.60;99.90
21207;DHT22;10761;48.532;8.026;2022-10-13T14:32:02;17.60;99.90
21207;DHT22;10761;48.532;8.026;2022-10-13T14:34:28;17.50;99.90
21207;DHT22;10761;48.532;8.026;2022-10-13T14:36:53;17.60;99.90
21207;DHT22;10761;48.532;8.026;2022-10-13T14:39:19;17.50;99.90
21207;DHT22;10761;48.532;8.026;2022-10-13T14:41:45;17.50;99.90
21207;DHT22;10761;48.532;8.026;2022-10-13T14:44:11;17.50;99.90
21207;DHT22;10761;48.532;8.026;2022-10-13T14:46:38;17.40;99.90
21207;DHT22;10761;48.532;8.026;2022-10-13T14:49:04;17.40;99.90
21207;DHT22;10761;48.532;8.026;2022-10-13T14:51:31;17.30;99.90
21207;DHT22;10761;48.532;8.026;2022-10-13T14:53:56;17.20;99.90
21207;DHT22;10761;48.532;8.026;2022-10-13T14:56:24;17.10;99.90
21207;DHT22;10761;48.532;8.026;2022-10-13T14:58:53;17.00;99.90
21207;DHT22;10761;48.532;8.026;2022-10-13T15:01:20;17.00;99.90
21207;DHT22;10761;48.532;8.026;2022-10-13T15:03:46;17.00;99.90
21207;DHT22;10761;48.532;8.026;2022-10-13T15:06:17;16.90;99.90
21207;DHT22;10761;48.532;8.026;2022-10-13T15:08:43;16.90;99.90
21207;DHT22;10761;48.532;8.026;2022-10-13T15:11:09;16.90;99.90
21207;DHT22;10761;48.532;8.026;2022-10-13T15:13:36;16.90;99.90
21207;DHT22;10761;48.532;8.026;2022-10-13T15:16:02;16.80;99.90
21207;DHT22;10761;48.532;8.026;2022-10-13T15:18:29;16.80;99.90
21207;DHT22;10761;48.532;8.026;2022-10-13T15:20:58;16.80;99.90
21207;DHT22;10761;48.532;8.026;2022-10-13T15:23:24;16.70;99.90
21207;DHT22;10761;48.532;8.026;2022-10-13T15:25:54;16.70;99.90
21207;DHT22;10761;48.532;8.026;2022-10-13T15:28:25;16.70;99.90
21207;DHT22;10761;48.532;8.026;2022-10-13T15:30:51;16.60;99.90
21207;DHT22;10761;48.532;8.026;2022-10-13T15:33:17;16.50;99.90
21207;DHT22;10761;48.532;8.026;2022-10-13T15:35:47;16.50;99.90
21207;DHT22;10761;48.532;8.026;2022-10-13T15:38:13;16.50;99.90
21207;DHT22;10761;48.532;8.026;2022-10-13T15:40:39;16.40;99.90
21207;DHT22;10761;48.532;8.026;2022-10-13T15:43:05;16.40;99.90
21207;DHT22;10761;48.532;8.026;2022-10-13T15:45:31;16.30;99.90
21207;DHT22;10761;48.532;8.026;2022-10-13T15:47:57;16.30;99.90
21207;DHT22;10761;48.532;8.026;2022-10-13T15:50:23;16.30;99.90
21207;DHT22;10761;48.532;8.026;2022-10-13T15:52:49;16.30;99.90
21207;DHT22;10761;48.532;8.026;2022-10-13T15:55:15;16.30;99.90
21207;DHT22;10761;48.532;8.026;2022-10-13T15:57:41;16.30;99.90
21207;DHT22;10761;48.532;8.026;2022-10-13T16:00:08;16.30;99.90
21207;DHT22;10761;48.532;8.026;2022-10-13T16:02:35;16.40;99.90
21207;DHT22;10761;48.532;8.026;2022-10-13T16:05:00;16.40;99.90
21207;DHT22;10761;48.532;8.026;2022-10-13T16:07:35;16.30;99.90
21207;DHT22;10761;48.532;8.026;2022-10-13T16:10:01;16.30;99.90
21207;DHT22;10761;48.532;8.026;2022-10-13T16:12:27;16.30;99.90
21207;DHT22;10761;48.532;8.026;2022-10-13T16:14:53;16.20;99.90
21207;DHT22;10761;48.532;8.026;2022-10-13T16:17:19;16.20;99.90
21207;DHT22;10761;48.532;8.026;2022-10-13T16:19:45;16.10;99.90
21207;DHT22;10761;48.532;8.026;2022-10-13T16:22:10;16.10;99.90
21207;DHT22;10761;48.532;8.026;2022-10-13T16:24:36;16.00;99.90
21207;DHT22;10761;48.532;8.026;2022-10-13T16:27:02;15.90;99.90
21207;DHT22;10761;48.532;8.026;2022-10-13T16:29:28;15.90;99.90
21207;DHT22;10761;48.532;8.026;2022-10-13T16:31:53;15.90;99.90
21207;DHT22;10761;48.532;8.026;2022-10-13T16:34:19;16.00;99.90
21207;DHT22;10761;48.532;8.026;2022-10-13T16:36:45;15.90;99.90
21207;DHT22;10761;48.532;8.026;2022-10-13T16:39:11;15.90;99.90
21207;DHT22;10761;48.532;8.026;2022-10-13T16:41:36;15.90;99.90
21207;DHT22;10761;48.532;8.026;2022-10-13T16:44:03;15.80;99.90
21207;DHT22;10761;48.532;8.026;2022-10-13T16:46:29;15.80;99.90
21207;DHT22;10761;48.532;8.026;2022-10-13T16:48:54;15.70;99.90
21207;DHT22;10761;48.532;8.026;2022-10-13T16:51:22;15.70;99.90
21207;DHT22;10761;48.532;8.026;2022-10-13T16:53:49;15.60;99.90
21207;DHT22;10761;48.532;8.026;2022-10-13T16:56:16;15.50;99.90
21207;DHT22;10761;48.532;8.026;2022-10-13T16:58:51;15.50;99.90
21207;DHT22;10761;48.532;8.026;2022-10-13T17:01:17;15.40;99.90
21207;DHT22;10761;48.532;8.026;2022-10-13T17:03:44;15.40;99.90
21207;DHT22;10761;48.532;8.026;2022-10-13T17:06:11;15.30;99.90
21207;DHT22;10761;48.532;8.026;2022-10-13T17:08:37;15.30;99.90
21207;DHT22;10761;48.532;8.026;2022-10-13T17:11:04;15.30;99.90
21207;DHT22;10761;48.532;8.026;2022-10-13T17:13:30;15.30;99.90
21207;DHT22;10761;48.532;8.026;2022-10-13T17:15:57;15.20;99.90